createdAt,value
2023-03-05T00:01:55.635Z,3.31
2023-03-05T00:04:00.591Z,3.30
2023-03-05T00:06:05.651Z,3.36
2023-03-05T00:08:10.478Z,3.24
2023-03-05T00:10:17.883Z,3.23
2023-03-05T00:12:22.642Z,3.25
2023-03-05T00:14:27.643Z,3.27
2023-03-05T00:16:33.043Z,3.26
2023-03-05T00:18:41.186Z,3.24
2023-03-05T00:20:46.208Z,3.17
2023-03-05T00:22:50.930Z,3.23
2023-03-05T00:24:55.962Z,3.23
2023-03-05T00:27:00.995Z,3.35
2023-03-05T00:29:06.527Z,3.34
2023-03-05T00:31:11.371Z,3.20
2023-03-05T00:33:16.721Z,3.15
2023-03-05T00:35:23.892Z,3.24
2023-03-05T00:37:28.743Z,3.29
2023-03-05T00:39:33.679Z,3.20
2023-03-05T00:41:38.496Z,3.27
2023-03-05T00:43:43.382Z,3.29
2023-03-05T00:45:48.167Z,3.30
2023-03-05T00:47:52.996Z,3.26
2023-03-05T00:49:57.797Z,3.25
2023-03-05T00:52:05.186Z,3.16
2023-03-05T00:54:10.221Z,3.20
2023-03-05T00:56:15.152Z,3.22
2023-03-05T00:58:20.202Z,3.22
2023-03-05T01:00:25.102Z,3.24
2023-03-05T01:02:30.026Z,3.26
2023-03-05T01:04:36.725Z,3.28
2023-03-05T01:06:46.274Z,3.27
2023-03-05T01:08:54.569Z,3.28
2023-03-05T01:10:59.668Z,3.26
2023-03-05T01:13:04.734Z,3.23
2023-03-05T01:15:09.785Z,3.22
2023-03-05T01:17:14.724Z,3.25
2023-03-05T01:19:19.746Z,3.35
2023-03-05T01:21:24.784Z,3.37
2023-03-05T01:23:29.996Z,3.30
2023-03-05T01:25:37.421Z,3.32
2023-03-05T01:27:42.248Z,3.26
2023-03-05T01:29:47.155Z,3.27
2023-03-05T01:31:52.028Z,3.32
2023-03-05T01:33:57.654Z,3.30
2023-03-05T01:36:02.470Z,3.36
2023-03-05T01:38:07.306Z,3.32
2023-03-05T01:40:15.049Z,3.40
2023-03-05T01:42:22.521Z,3.40
2023-03-05T01:44:29.842Z,3.38
2023-03-05T01:46:39.801Z,3.38
2023-03-05T01:48:44.569Z,3.36
2023-03-05T01:50:49.866Z,3.32
2023-03-05T01:53:00.396Z,3.45
2023-03-05T01:55:10.906Z,3.45
2023-03-05T01:57:19.315Z,3.44
2023-03-05T01:59:29.057Z,3.46
2023-03-05T02:01:36.686Z,3.52
2023-03-05T02:03:42.896Z,3.43
2023-03-05T02:05:47.735Z,3.48
2023-03-05T02:07:54.547Z,3.45
2023-03-05T02:09:59.374Z,3.48
2023-03-05T02:12:04.177Z,3.51
2023-03-05T02:14:10.571Z,3.54
2023-03-05T02:16:18.413Z,3.49
2023-03-05T02:18:24.571Z,3.47
2023-03-05T02:20:34.802Z,3.53
2023-03-05T02:22:42.172Z,3.50
2023-03-05T02:24:47.263Z,3.49
2023-03-05T02:26:52.090Z,3.50
2023-03-05T02:29:00.982Z,3.49
2023-03-05T02:31:12.602Z,3.52
2023-03-05T02:33:18.346Z,3.53
2023-03-05T02:35:23.454Z,3.54
2023-03-05T02:37:28.298Z,3.50
2023-03-05T02:39:36.080Z,3.53
2023-03-05T02:41:41.077Z,3.55
2023-03-05T02:43:46.062Z,3.54
2023-03-05T02:45:50.897Z,3.55
2023-03-05T02:47:55.708Z,3.51
2023-03-05T02:50:00.748Z,3.62
2023-03-05T02:52:06.784Z,3.67
2023-03-05T02:54:11.607Z,3.70
2023-03-05T02:56:19.078Z,3.71
2023-03-05T02:58:23.945Z,3.75
2023-03-05T03:00:30.134Z,3.78
2023-03-05T03:02:34.772Z,3.77
2023-03-05T03:04:39.612Z,3.68
2023-03-05T03:06:44.417Z,3.67
2023-03-05T03:08:49.290Z,3.66
2023-03-05T03:10:56.489Z,3.66
2023-03-05T03:13:04.028Z,3.66
2023-03-05T03:15:10.542Z,3.59
2023-03-05T03:17:17.163Z,3.60
2023-03-05T03:19:21.971Z,3.55
2023-03-05T03:21:28.306Z,3.56
2023-03-05T03:23:33.630Z,3.57
2023-03-05T03:25:38.178Z,3.58
2023-03-05T03:27:42.991Z,3.55
2023-03-05T03:29:50.508Z,3.55
2023-03-05T03:31:55.243Z,3.49
2023-03-05T03:34:00.109Z,3.45
2023-03-05T03:36:06.130Z,3.46
2023-03-05T03:38:11.965Z,3.56
2023-03-05T03:40:17.228Z,3.51
2023-03-05T03:42:24.579Z,3.59
2023-03-05T03:44:29.333Z,3.51
2023-03-05T03:46:36.836Z,3.49
2023-03-05T03:48:41.658Z,3.48
2023-03-05T03:50:47.100Z,3.46
2023-03-05T03:52:51.896Z,3.43
2023-03-05T03:55:01.781Z,3.40
2023-03-05T03:57:06.609Z,3.38
2023-03-05T03:59:11.976Z,3.39
2023-03-05T04:01:16.756Z,3.41
2023-03-05T04:03:24.185Z,3.44
2023-03-05T04:05:29.037Z,3.51
2023-03-05T04:07:33.920Z,3.57
2023-03-05T04:09:38.696Z,3.67
2023-03-05T04:11:43.579Z,3.72
2023-03-05T04:13:48.356Z,3.74
2023-03-05T04:15:53.193Z,3.76
2023-03-05T04:17:58.097Z,3.73
2023-03-05T04:20:05.870Z,3.74
2023-03-05T04:22:13.120Z,3.69
2023-03-05T04:24:18.034Z,3.71
2023-03-05T04:26:22.788Z,3.68
2023-03-05T04:28:27.731Z,3.61
2023-03-05T04:30:32.644Z,3.52
2023-03-05T04:32:37.707Z,3.55
2023-03-05T04:34:42.516Z,3.49
2023-03-05T04:36:50.470Z,3.50
2023-03-05T04:38:55.368Z,3.53
2023-03-05T04:41:00.189Z,3.49
2023-03-05T04:43:05.269Z,3.51
2023-03-05T04:45:11.421Z,3.48
2023-03-05T04:47:16.270Z,3.51
2023-03-05T04:49:21.109Z,3.49
2023-03-05T04:51:26.101Z,3.51
2023-03-05T04:53:33.561Z,3.51
2023-03-05T04:55:38.339Z,3.58
2023-03-05T04:57:43.466Z,3.51
2023-03-05T04:59:48.285Z,3.55
2023-03-05T05:01:53.181Z,3.59
2023-03-05T05:03:58.000Z,3.65
2023-03-05T05:06:04.649Z,3.70
2023-03-05T05:08:09.474Z,3.77
2023-03-05T05:10:20.982Z,3.79
2023-03-05T05:12:25.752Z,3.78
2023-03-05T05:14:30.602Z,3.66
2023-03-05T05:16:38.470Z,3.62
2023-03-05T05:18:43.796Z,3.62
2023-03-05T05:20:48.337Z,3.55
2023-03-05T05:22:53.139Z,3.54
2023-03-05T05:24:58.061Z,3.52
2023-03-05T05:27:05.513Z,3.50
2023-03-05T05:29:10.418Z,3.46
2023-03-05T05:31:17.479Z,3.41
2023-03-05T05:33:22.523Z,3.52
2023-03-05T05:35:27.417Z,3.54
2023-03-05T05:37:33.008Z,3.53
2023-03-05T05:39:38.639Z,3.42
2023-03-05T05:41:43.512Z,3.47
2023-03-05T05:43:51.102Z,3.44
2023-03-05T05:45:55.961Z,3.38
2023-03-05T05:48:00.828Z,3.35
2023-03-05T05:50:05.688Z,3.37
2023-03-05T05:52:11.371Z,3.40
2023-03-05T05:54:16.611Z,3.38
2023-03-05T05:56:21.223Z,3.33
2023-03-05T05:58:26.012Z,3.25
2023-03-05T06:00:33.459Z,3.21
2023-03-05T06:02:41.462Z,3.18
2023-03-05T06:04:46.315Z,3.16
2023-03-05T06:06:51.251Z,3.23
2023-03-05T06:08:57.066Z,3.27
2023-03-05T06:11:01.821Z,3.37
2023-03-05T06:13:06.696Z,3.42
2023-03-05T06:15:12.546Z,3.40
2023-03-05T06:17:29.853Z,3.34
2023-03-05T06:19:35.833Z,3.39
2023-03-05T06:21:40.385Z,3.30
2023-03-05T06:23:45.722Z,3.21
2023-03-05T06:25:50.794Z,3.30
2023-03-05T06:27:55.551Z,3.33
2023-03-05T06:30:00.380Z,3.30
2023-03-05T06:32:05.255Z,3.28
2023-03-05T06:34:13.654Z,3.33
2023-03-05T06:36:20.515Z,3.38
2023-03-05T06:38:25.607Z,3.34
2023-03-05T06:40:30.437Z,3.30
2023-03-05T06:42:36.613Z,3.37
2023-03-05T06:44:42.063Z,3.37
2023-03-05T06:46:47.043Z,3.37
2023-03-05T06:48:52.890Z,3.33
2023-03-05T06:51:00.566Z,3.47
2023-03-05T06:53:05.543Z,3.53
2023-03-05T06:55:11.474Z,3.49
2023-03-05T06:57:16.431Z,3.50
2023-03-05T06:59:21.790Z,3.49
2023-03-05T07:01:26.443Z,3.53
2023-03-05T07:03:33.872Z,3.50
2023-03-05T07:05:41.551Z,3.47
2023-03-05T07:07:48.996Z,3.46
2023-03-05T07:09:53.879Z,3.45
2023-03-05T07:11:58.729Z,3.51
2023-03-05T07:14:04.398Z,3.47
2023-03-05T07:16:10.954Z,3.54
2023-03-05T07:18:15.967Z,3.66
2023-03-05T07:20:21.182Z,3.63
2023-03-05T07:22:25.890Z,3.67
2023-03-05T07:24:33.547Z,3.68
2023-03-05T07:26:38.957Z,3.70
2023-03-05T07:28:44.557Z,3.63
2023-03-05T07:30:58.790Z,3.79
2023-03-05T07:33:03.914Z,3.83
2023-03-05T07:35:09.366Z,3.75
2023-03-05T07:37:14.303Z,3.76
2023-03-05T07:39:19.589Z,3.81
2023-03-05T07:41:26.798Z,3.88
2023-03-05T07:43:31.577Z,3.89
2023-03-05T07:45:36.583Z,3.90
2023-03-05T07:47:41.475Z,3.91
2023-03-05T07:49:46.373Z,4.06
2023-03-05T07:51:51.164Z,4.10
2023-03-05T07:53:58.492Z,4.11
2023-03-05T07:56:03.346Z,4.15
2023-03-05T07:58:10.773Z,4.15
2023-03-05T08:00:16.839Z,3.98
2023-03-05T08:02:21.946Z,4.04
2023-03-05T08:04:26.874Z,4.12
2023-03-05T08:06:32.022Z,4.25
2023-03-05T08:08:36.853Z,4.23
2023-03-05T08:10:41.733Z,4.09
2023-03-05T08:12:46.530Z,4.14
2023-03-05T08:14:54.216Z,4.19
2023-03-05T08:16:58.979Z,4.19
2023-03-05T08:19:04.406Z,4.17
2023-03-05T08:21:09.511Z,4.20
2023-03-05T08:23:15.504Z,4.26
2023-03-05T08:25:20.657Z,4.23
2023-03-05T08:27:25.491Z,4.18
2023-03-05T08:29:30.735Z,4.22
2023-03-05T08:31:38.205Z,4.18
2023-03-05T08:33:43.450Z,4.19
2023-03-05T08:35:48.497Z,4.14
2023-03-05T08:37:53.432Z,4.19
2023-03-05T08:39:58.342Z,4.17
2023-03-05T08:42:03.309Z,4.07
2023-03-05T08:44:08.078Z,4.11
2023-03-05T08:46:16.871Z,4.13
2023-03-05T08:48:24.472Z,4.15
2023-03-05T08:50:29.336Z,4.22
2023-03-05T08:52:34.216Z,4.22
2023-03-05T08:54:39.845Z,4.22
2023-03-05T08:56:44.691Z,4.40
2023-03-05T08:58:49.807Z,4.48
2023-03-05T09:00:54.777Z,4.62
2023-03-05T09:02:59.976Z,4.57
2023-03-05T09:05:07.378Z,4.31
2023-03-05T09:07:13.045Z,4.32
2023-03-05T09:09:20.785Z,4.41
2023-03-05T09:11:25.634Z,4.37
2023-03-05T09:13:30.469Z,4.39
2023-03-05T09:15:36.845Z,4.36
2023-03-05T09:17:43.228Z,4.30
2023-03-05T09:19:48.045Z,4.27
2023-03-05T09:21:57.111Z,4.21
2023-03-05T09:24:02.051Z,4.10
2023-03-05T09:26:08.756Z,4.20
2023-03-05T09:28:13.560Z,4.22
2023-03-05T09:30:19.323Z,4.20
2023-03-05T09:32:24.421Z,4.25
2023-03-05T09:34:29.244Z,4.16
2023-03-05T09:36:35.510Z,4.09
2023-03-05T09:38:42.926Z,4.04
2023-03-05T09:40:55.449Z,4.04
2023-03-05T09:43:08.646Z,4.03
2023-03-05T09:45:23.203Z,4.11
2023-03-05T09:47:47.285Z,4.12
2023-03-05T09:50:00.424Z,4.01
2023-03-05T09:52:10.570Z,3.93
2023-03-05T09:54:21.924Z,3.94
2023-03-05T09:56:29.758Z,3.91
2023-03-05T09:58:38.686Z,3.99
2023-03-05T10:00:46.778Z,3.98
2023-03-05T10:02:58.512Z,3.96
2023-03-05T10:05:13.166Z,4.05
2023-03-05T10:07:22.980Z,4.06
2023-03-05T10:09:45.603Z,4.17
2023-03-05T10:11:56.606Z,4.25
2023-03-05T10:14:01.558Z,4.35
2023-03-05T10:16:19.786Z,4.31
2023-03-05T10:18:35.876Z,4.31
2023-03-05T10:20:49.520Z,4.27
2023-03-05T10:23:14.026Z,4.38
2023-03-05T10:25:29.282Z,4.28
2023-03-05T10:27:45.964Z,4.27
2023-03-05T10:30:07.598Z,4.28
2023-03-05T10:32:28.943Z,4.36
2023-03-05T10:34:59.861Z,4.44
2023-03-05T10:37:23.927Z,4.59
2023-03-05T10:39:59.253Z,4.68
2023-03-05T10:42:13.941Z,4.76
2023-03-05T10:44:30.849Z,4.67
2023-03-05T10:46:40.688Z,4.68
2023-03-05T10:48:49.936Z,4.65
2023-03-05T10:50:59.994Z,4.65
2023-03-05T10:53:16.793Z,4.66
2023-03-05T10:55:24.468Z,4.81
2023-03-05T10:57:34.587Z,4.95
2023-03-05T10:59:39.371Z,4.96
2023-03-05T11:01:44.747Z,4.95
2023-03-05T11:03:52.823Z,4.91
2023-03-05T11:06:03.435Z,4.93
2023-03-05T11:08:26.975Z,5.10
2023-03-05T11:10:31.789Z,5.24
2023-03-05T11:12:40.795Z,5.22
2023-03-05T11:14:47.787Z,5.24
2023-03-05T11:16:53.487Z,5.15
2023-03-05T11:19:21.289Z,5.08
2023-03-05T11:21:29.315Z,5.03
2023-03-05T11:23:34.180Z,4.91
2023-03-05T11:25:55.716Z,5.01
2023-03-05T11:28:05.470Z,5.01
2023-03-05T11:30:22.470Z,4.99
2023-03-05T11:32:29.557Z,5.09
2023-03-05T11:34:36.093Z,5.23
2023-03-05T11:36:42.927Z,5.35
2023-03-05T11:38:50.054Z,5.35
2023-03-05T11:40:56.450Z,5.24
2023-03-05T11:43:05.003Z,5.32
2023-03-05T11:45:18.582Z,5.35
2023-03-05T11:47:29.349Z,5.42
2023-03-05T11:49:35.356Z,5.40
2023-03-05T11:51:46.129Z,5.11
2023-03-05T11:53:55.650Z,4.99
2023-03-05T11:56:07.301Z,5.03
2023-03-05T11:58:28.399Z,4.87
2023-03-05T12:00:37.932Z,4.85
2023-03-05T12:02:43.050Z,4.84
2023-03-05T12:04:48.117Z,4.75
2023-03-05T12:06:55.228Z,4.81
2023-03-05T12:09:03.843Z,4.74
2023-03-05T12:11:17.819Z,4.83
2023-03-05T12:13:32.172Z,4.83
2023-03-05T12:16:03.948Z,4.93
2023-03-05T12:18:18.685Z,5.01
2023-03-05T12:20:36.545Z,5.04
2023-03-05T12:22:43.432Z,5.07
2023-03-05T12:24:48.422Z,4.95
2023-03-05T12:27:09.955Z,5.01
2023-03-05T12:29:40.343Z,5.20
2023-03-05T12:31:45.640Z,5.25
2023-03-05T12:33:50.174Z,5.21
2023-03-05T12:35:55.013Z,5.21
2023-03-05T12:38:25.852Z,5.14
2023-03-05T12:40:33.319Z,5.13
2023-03-05T12:42:49.922Z,5.12
2023-03-05T12:45:24.520Z,5.25
2023-03-05T12:47:32.050Z,5.30
2023-03-05T12:49:41.359Z,5.39
2023-03-05T12:51:47.031Z,5.37
2023-03-05T12:53:54.313Z,5.29
2023-03-05T12:56:04.168Z,5.30
2023-03-05T12:58:16.117Z,5.13
2023-03-05T13:00:28.536Z,5.16
2023-03-05T13:02:39.910Z,5.08
2023-03-05T13:04:48.669Z,5.22
2023-03-05T13:07:03.442Z,5.18
2023-03-05T13:09:17.438Z,5.01
2023-03-05T13:11:25.391Z,5.00
2023-03-05T13:13:33.908Z,4.91
2023-03-05T13:15:39.167Z,4.77
2023-03-05T13:17:53.392Z,4.85
2023-03-05T13:19:58.702Z,4.92
2023-03-05T13:22:13.603Z,4.97
2023-03-05T13:24:22.429Z,4.90
2023-03-05T13:26:28.313Z,4.85
2023-03-05T13:28:34.685Z,4.74
2023-03-05T13:30:39.527Z,4.74
2023-03-05T13:32:46.926Z,4.82
2023-03-05T13:34:51.721Z,4.89
2023-03-05T13:37:02.429Z,4.90
2023-03-05T13:39:08.339Z,4.91
2023-03-05T13:41:26.113Z,4.79
2023-03-05T13:43:31.039Z,4.75
2023-03-05T13:45:40.125Z,4.78
2023-03-05T13:47:56.004Z,4.84
2023-03-05T13:50:01.338Z,4.86
2023-03-05T13:52:06.596Z,4.81
2023-03-05T13:54:13.390Z,4.81
2023-03-05T13:56:20.751Z,4.83
2023-03-05T13:58:44.413Z,4.89
2023-03-05T14:00:49.306Z,4.92
2023-03-05T14:02:59.688Z,5.08
2023-03-05T14:05:07.058Z,5.06
2023-03-05T14:07:28.795Z,5.04
2023-03-05T14:09:46.111Z,5.00
2023-03-05T14:12:03.582Z,5.04
2023-03-05T14:14:12.621Z,5.11
2023-03-05T14:16:28.094Z,4.96
2023-03-05T14:18:38.809Z,5.03
2023-03-05T14:21:01.738Z,5.06
2023-03-05T14:23:28.327Z,5.00
2023-03-05T14:25:38.657Z,5.08
2023-03-05T14:27:43.494Z,5.05
2023-03-05T14:29:49.563Z,5.02
2023-03-05T14:31:57.352Z,4.94
2023-03-05T14:34:10.136Z,4.83
2023-03-05T14:36:16.347Z,4.84
2023-03-05T14:38:25.077Z,4.67
2023-03-05T14:40:33.741Z,4.74
2023-03-05T14:42:39.654Z,4.74
2023-03-05T14:44:44.749Z,4.71
2023-03-05T14:46:52.154Z,4.69
2023-03-05T14:48:57.172Z,4.66
2023-03-05T14:51:06.056Z,4.78
2023-03-05T14:53:16.259Z,4.88
2023-03-05T14:55:23.373Z,4.76
2023-03-05T14:57:31.068Z,4.66
2023-03-05T14:59:36.080Z,4.73
2023-03-05T15:01:40.882Z,4.79
2023-03-05T15:03:45.853Z,4.86
2023-03-05T15:05:53.867Z,4.77
2023-03-05T15:08:01.374Z,4.70
2023-03-05T15:10:08.799Z,4.75
2023-03-05T15:12:16.227Z,4.86
2023-03-05T15:14:21.043Z,4.91
2023-03-05T15:16:26.204Z,4.84
2023-03-05T15:18:31.069Z,4.71
2023-03-05T15:20:39.922Z,4.70
2023-03-05T15:22:44.764Z,4.75
2023-03-05T15:24:52.137Z,4.84
2023-03-05T15:26:56.957Z,4.98
2023-03-05T15:29:01.748Z,5.11
2023-03-05T15:31:08.728Z,5.21
2023-03-05T15:33:18.351Z,5.17
2023-03-05T15:35:23.939Z,5.14
2023-03-05T15:37:28.886Z,5.00
2023-03-05T15:39:33.768Z,4.82
2023-03-05T15:41:41.526Z,4.68
2023-03-05T15:43:46.287Z,4.64
2023-03-05T15:45:51.047Z,4.59
2023-03-05T15:47:56.858Z,4.59
2023-03-05T15:50:01.636Z,4.63
2023-03-05T15:52:06.480Z,4.56
2023-03-05T15:54:12.162Z,4.63
2023-03-05T15:56:18.405Z,4.73
2023-03-05T15:58:25.784Z,4.71
2023-03-05T16:00:33.799Z,4.67
2023-03-05T16:02:38.596Z,4.69
2023-03-05T16:04:43.514Z,4.69
2023-03-05T16:06:49.859Z,4.76
2023-03-05T16:08:58.949Z,4.85
2023-03-05T16:11:04.110Z,4.84
2023-03-05T16:13:11.432Z,4.78
2023-03-05T16:15:22.671Z,4.81
2023-03-05T16:17:29.472Z,4.81
2023-03-05T16:19:38.516Z,4.84
2023-03-05T16:21:43.738Z,4.68
2023-03-05T16:23:49.887Z,4.45
2023-03-05T16:25:54.962Z,4.55
2023-03-05T16:27:59.866Z,4.48
2023-03-05T16:30:05.004Z,4.57
2023-03-05T16:32:12.461Z,4.67
2023-03-05T16:34:18.830Z,4.62
2023-03-05T16:36:26.987Z,4.53
2023-03-05T16:38:31.828Z,4.57
2023-03-05T16:41:06.057Z,4.59
2023-03-05T16:43:04.470Z,4.60
2023-03-05T16:45:11.047Z,4.48
2023-03-05T16:47:18.904Z,4.47
2023-03-05T16:49:24.372Z,4.41
2023-03-05T16:51:29.695Z,4.45
2023-03-05T16:53:34.388Z,4.54
2023-03-05T16:55:39.950Z,4.56
2023-03-05T16:57:44.811Z,4.50
2023-03-05T16:59:49.627Z,4.41
2023-03-05T17:01:54.715Z,4.36
2023-03-05T17:04:03.052Z,4.26
2023-03-05T17:06:11.857Z,4.31
2023-03-05T17:08:16.638Z,4.41
2023-03-05T17:10:21.470Z,4.45
2023-03-05T17:12:26.397Z,4.51
2023-03-05T17:14:31.699Z,4.47
2023-03-05T17:16:36.588Z,4.58
2023-03-05T17:18:41.689Z,4.48
2023-03-05T17:20:49.150Z,4.38
2023-03-05T17:22:55.248Z,4.42
2023-03-05T17:25:00.042Z,4.39
2023-03-05T17:27:04.901Z,4.41
2023-03-05T17:29:10.406Z,4.44
2023-03-05T17:31:16.185Z,4.46
2023-03-05T17:33:21.101Z,4.48
2023-03-05T17:35:26.250Z,4.51
2023-03-05T17:37:33.445Z,4.44
2023-03-05T17:39:38.238Z,4.38
2023-03-05T17:41:43.154Z,4.41
2023-03-05T17:43:48.294Z,4.42
2023-03-05T17:45:52.920Z,4.35
2023-03-05T17:47:58.789Z,4.39
2023-03-05T17:50:04.468Z,4.49
2023-03-05T17:52:09.264Z,4.57
2023-03-05T17:54:16.832Z,4.60
2023-03-05T17:56:24.154Z,4.67
2023-03-05T17:58:30.004Z,4.71
2023-03-05T18:00:36.472Z,4.70
2023-03-05T18:02:41.335Z,4.81
2023-03-05T18:04:48.058Z,4.84
2023-03-05T18:06:52.837Z,4.91
2023-03-05T18:08:57.610Z,4.86
2023-03-05T18:11:05.009Z,4.87
2023-03-05T18:13:09.944Z,4.72
2023-03-05T18:15:19.180Z,4.67
2023-03-05T18:17:25.664Z,4.61
2023-03-05T18:19:30.485Z,4.61
2023-03-05T18:21:35.497Z,4.68
2023-03-05T18:23:40.333Z,4.70
2023-03-05T18:25:45.396Z,4.75
2023-03-05T18:27:52.765Z,4.80
2023-03-05T18:29:57.706Z,4.78
2023-03-05T18:32:03.247Z,4.76
2023-03-05T18:34:08.016Z,4.80
2023-03-05T18:36:14.624Z,4.76
2023-03-05T18:38:19.379Z,4.74
2023-03-05T18:40:27.676Z,4.72
2023-03-05T18:42:32.791Z,4.74
2023-03-05T18:44:40.542Z,4.68
2023-03-05T18:46:45.325Z,4.70
2023-03-05T18:48:50.563Z,4.70
2023-03-05T18:50:55.778Z,4.67
2023-03-05T18:53:00.544Z,4.67
2023-03-05T18:55:05.353Z,4.66
2023-03-05T18:57:10.150Z,4.63
2023-03-05T18:59:14.905Z,4.57
2023-03-05T19:01:22.902Z,4.52
2023-03-05T19:03:27.766Z,4.52
2023-03-05T19:05:33.368Z,4.54
2023-03-05T19:07:38.304Z,4.60
2023-03-05T19:09:53.237Z,4.59
2023-03-05T19:11:58.090Z,4.56
2023-03-05T19:14:02.877Z,4.57
2023-03-05T19:16:12.770Z,4.54
2023-03-05T19:18:21.288Z,4.49
2023-03-05T19:20:26.187Z,4.53
2023-03-05T19:22:36.295Z,4.59
2023-03-05T19:24:41.404Z,4.45
2023-03-05T19:26:48.034Z,4.43
2023-03-05T19:28:52.847Z,4.47
2023-03-05T19:30:57.732Z,4.54
2023-03-05T19:33:03.784Z,4.57
2023-03-05T19:35:16.676Z,4.63
2023-03-05T19:37:21.488Z,4.57
2023-03-05T19:39:26.375Z,4.54
2023-03-05T19:41:32.791Z,4.53
2023-03-05T19:43:37.794Z,4.56
2023-03-05T19:45:42.811Z,4.50
2023-03-05T19:47:47.589Z,4.49
2023-03-05T19:49:52.827Z,4.57
2023-03-05T19:52:04.301Z,4.54
2023-03-05T19:54:09.645Z,4.52
2023-03-05T19:56:17.688Z,4.53
2023-03-05T19:58:22.504Z,4.58
2023-03-05T20:00:30.319Z,4.54
2023-03-05T20:02:36.277Z,4.65
2023-03-05T20:04:41.047Z,4.74
2023-03-05T20:06:45.869Z,4.81
2023-03-05T20:08:53.459Z,4.86
2023-03-05T20:10:58.243Z,4.89
2023-03-05T20:13:03.259Z,4.92
2023-03-05T20:15:09.202Z,4.93
2023-03-05T20:17:14.071Z,4.92
2023-03-05T20:19:21.977Z,4.91
2023-03-05T20:21:32.051Z,4.94
2023-03-05T20:23:36.865Z,4.92
2023-03-05T20:25:44.273Z,4.92
2023-03-05T20:27:49.064Z,4.95
2023-03-05T20:29:53.863Z,4.96
2023-03-05T20:31:59.261Z,4.93
2023-03-05T20:34:04.129Z,4.92
2023-03-05T20:36:09.796Z,4.95
2023-03-05T20:38:25.313Z,4.93
2023-03-05T20:40:30.210Z,4.94
2023-03-05T20:42:40.214Z,4.94
2023-03-05T20:44:45.349Z,4.96
2023-03-05T20:47:10.041Z,4.95
2023-03-05T20:49:14.910Z,4.89
2023-03-05T20:51:22.830Z,4.89
2023-03-05T20:53:27.762Z,4.89
2023-03-05T20:55:35.399Z,4.89
2023-03-05T20:57:44.184Z,4.89
2023-03-05T20:59:48.996Z,4.88
2023-03-05T21:01:53.796Z,4.87
2023-03-05T21:03:59.910Z,4.89
2023-03-05T21:06:05.636Z,4.89
2023-03-05T21:08:10.519Z,4.86
2023-03-05T21:10:16.563Z,4.82
2023-03-05T21:12:21.353Z,4.86
2023-03-05T21:14:28.806Z,4.87
2023-03-05T21:16:35.381Z,4.86
2023-03-05T21:18:40.349Z,4.84
2023-03-05T21:20:45.205Z,4.84
2023-03-05T21:22:50.531Z,4.82
2023-03-05T21:25:03.371Z,4.80
2023-03-05T21:27:08.203Z,4.76
2023-03-05T21:29:13.091Z,4.79
2023-03-05T21:31:23.161Z,4.78
2023-03-05T21:33:30.038Z,4.76
2023-03-05T21:35:35.981Z,4.73
2023-03-05T21:37:42.677Z,4.74
2023-03-05T21:39:47.524Z,4.74
2023-03-05T21:41:52.907Z,4.75
2023-03-05T21:43:58.257Z,4.77
2023-03-05T21:46:04.425Z,4.75
2023-03-05T21:48:12.487Z,4.75
2023-03-05T21:50:18.737Z,4.76
2023-03-05T21:52:23.502Z,4.78
2023-03-05T21:54:29.137Z,4.80
2023-03-05T21:56:34.008Z,4.82
2023-03-05T21:58:38.892Z,4.83
2023-03-05T22:00:43.840Z,4.82
2023-03-05T22:02:48.713Z,4.78
2023-03-05T22:04:56.233Z,4.76
2023-03-05T22:07:01.127Z,4.75
2023-03-05T22:09:06.216Z,4.78
2023-03-05T22:11:12.546Z,4.81
2023-03-05T22:13:20.101Z,4.84
2023-03-05T22:15:25.443Z,4.73
2023-03-05T22:17:29.948Z,4.67
2023-03-05T22:19:34.800Z,4.66
2023-03-05T22:21:42.249Z,4.70
2023-03-05T22:23:46.980Z,4.74
2023-03-05T22:25:58.852Z,4.77
2023-03-05T22:28:04.145Z,4.75
2023-03-05T22:30:10.746Z,4.76
2023-03-05T22:32:15.699Z,4.78
2023-03-05T22:34:20.483Z,4.80
2023-03-05T22:36:25.849Z,4.77
2023-03-05T22:38:33.238Z,4.77
2023-03-05T22:40:38.524Z,4.75
2023-03-05T22:42:44.292Z,4.75
2023-03-05T22:44:49.213Z,4.78
2023-03-05T22:46:54.071Z,4.81
2023-03-05T22:48:58.912Z,4.76
2023-03-05T22:51:03.829Z,4.78
2023-03-05T22:53:08.634Z,4.80
2023-03-05T22:55:18.509Z,4.82
2023-03-05T22:57:23.360Z,4.84
2023-03-05T22:59:28.253Z,4.78
2023-03-05T23:01:33.074Z,4.80
2023-03-05T23:03:38.070Z,4.80
2023-03-05T23:05:43.410Z,4.78
2023-03-05T23:07:49.396Z,4.72
2023-03-05T23:09:55.238Z,4.71
2023-03-05T23:12:02.628Z,4.68
2023-03-05T23:14:07.460Z,4.68
2023-03-05T23:16:12.532Z,4.68
2023-03-05T23:18:17.540Z,4.67
2023-03-05T23:20:24.672Z,4.66
2023-03-05T23:22:29.521Z,4.63
2023-03-05T23:24:34.524Z,4.64
2023-03-05T23:26:39.280Z,4.65
2023-03-05T23:28:46.846Z,4.62
2023-03-05T23:30:51.714Z,4.61
2023-03-05T23:32:58.933Z,4.62
2023-03-05T23:35:01.143Z,4.57
2023-03-05T23:37:06.712Z,4.58
2023-03-05T23:39:11.460Z,4.54
2023-03-05T23:41:16.273Z,4.51
2023-03-05T23:43:21.621Z,4.51
2023-03-05T23:45:29.784Z,4.56
2023-03-05T23:47:36.702Z,4.57
2023-03-05T23:49:41.668Z,4.59
2023-03-05T23:51:46.524Z,4.58
2023-03-05T23:53:51.299Z,4.55
2023-03-05T23:55:56.971Z,4.56
2023-03-05T23:58:01.873Z,4.56
